Terminal Aerodrome Forecast
Issued by NWS Wakefield, VA

Home | Current Version | Previous Version | Text Only | Print | Product List | Glossary On
Versions: 1 2 3 4 5 6 7 8 9 10 11 12
374
FTUS41 KAKQ 262327
TAFECG
TAF
KECG 262327Z 2700/2724 11009KT P6SM FEW060
     FM271200 18005KT P6SM BKN090
     FM271700 20009KT P6SM BKN050
     FM272000 21012KT P6SM SCT050 BKN250=

USA.gov is the U.S. government's official web portal to all federal, state and local government web resources and services.